torrents rarbg
Catalog Top 10

RARBG
Home
Movies
XXX
TV Shows
Games
Music
Anime
Apps
Doc
Other
Non XXX
Recommended torrents :



»

Cat. File Category Added Size S. L. Uploader
Jersey.Shore.Family.Vacation.S05E21.720p.WEB.h264-BAE[TGx] TV/HD 2022-09-24 10:14:48 910.1 MB 3 5 TGxGoodies
Jersey.Shore.Family.Vacation.S05E14.720p.WEB.h264-BAE[TGx] TV/HD 2022-09-24 10:14:47 886.7 MB 2 0 TGxGoodies
Jersey.Shore.Family.Vacation.S05E16.720p.WEB.h264-BAE[TGx] TV/HD 2022-09-24 10:14:47 897.9 MB 2 2 TGxGoodies
Jersey.Shore.Family.Vacation.S05E15.720p.WEB.h264-BAE[TGx] TV/HD 2022-09-24 10:14:47 889.7 MB 0 2 TGxGoodies
Jersey.Shore.Family.Vacation.S05E17.720p.WEB.h264-BAE[TGx] TV/HD 2022-09-24 10:14:47 914 MB 4 1 TGxGoodies
Jersey.Shore.Family.Vacation.S05E13.720p.WEB.h264-BAE[TGx] TV/HD 2022-09-24 10:14:47 929.9 MB 2 0 TGxGoodies
Monarch.S01E01.Stop.at.Nothing.1080p.AMZN.WEBRip.DDP5.1.x264-KiNGS[TGx] TV/HD 2022-09-24 10:14:47 3 GB 4 5 TGxGoodies
Jersey.Shore.Family.Vacation.S05E00.Jerztory.How.Jersey.Shore.Changed.TV.720p.WEB.h264-BAE[TGx] TV/HD 2022-09-24 10:14:47 860.8 MB 1 1 TGxGoodies
Monarch.S01E01.Stop.at.Nothing.720p.AMZN.WEBRip.DDP5.1.x264-KiNGS[TGx] TV/HD 2022-09-24 10:14:47 1.6 GB 3 5 TGxGoodies
Queen.Sugar.S07E03.XviD-AFG[TGx] TV/Divx/Xvid 2022-09-24 10:14:47 482.3 MB 3 0 TGxGoodies
Betraying.The.Badge.S02E05.WEBRip.x264-PHOENiX TV/SD 2022-09-24 10:14:43 352.1 MB 5 7 TGxGoodies
Betraying.The.Badge.S02E05.720p.WEBRip.x264-BAE[TGx] TV/HD 2022-09-24 10:14:43 700.7 MB 1 1 TGxGoodies
Ghosts S04 complete (1280x720p HD, 50fps, soft Eng subs) TV/HD 2022-09-24 10:14:43 6.2 GB 33 26 ElsonRoa
The.Amazing.Race.S34E01.Many.Firsts.But.Dont.Be.Last.720p.AMZN.WEBRip.DDP2.0.x264-KiNGS[TGx] TV/HD 2022-09-24 10:14:39 1.4 GB 5 5 TGxGoodies
My.True.Crime.Story.S02E04.WEB.x264-PHOENiX TV/SD 2022-09-24 10:14:31 306.2 MB 7 5 TGxGoodies
My.True.Crime.Story.S02E02.WEB.x264-PHOENiX TV/SD 2022-09-24 10:14:30 311.9 MB 8 3 TGxGoodies
My.True.Crime.Story.S02E03.WEB.x264-PHOENiX TV/SD 2022-09-24 10:14:30 274.5 MB 7 2 TGxGoodies
My.True.Crime.Story.S02E01.WEB.x264-PHOENiX TV/SD 2022-09-24 10:14:30 407.5 MB 8 5 TGxGoodies
My.True.Crime.Story.S02E03.720p.WEB.h264-BAE[TGx] TV/HD 2022-09-24 10:14:26 625.9 MB 3 4 TGxGoodies
My.True.Crime.Story.S02E02.720p.WEB.h264-BAE[TGx] TV/HD 2022-09-24 10:14:26 678.6 MB 1 2 TGxGoodies
My.True.Crime.Story.S02E04.720p.WEB.h264-BAE[TGx] TV/HD 2022-09-24 10:14:26 663.7 MB 2 2 TGxGoodies
My.True.Crime.Story.S02E01.720p.WEB.h264-BAE[TGx] TV/HD 2022-09-24 10:14:26 821.2 MB 3 3 TGxGoodies
The.First.Lady.S01E04-06.1080p.WEBMux.ITA.AAC.ENG.E-AC3.SUBS.ODINO TV/HD 2022-09-24 10:14:26 12.1 GB 13 4 eXpOrTeRICV
The.First.Lady.S01E04-06.1080p.HEVC.WEBMux.ITA.AAC.ENG.E-AC3.SUBS.ODINO TV/HEVC/x265 2022-09-24 10:14:26 6.3 GB 6 2 eXpOrTeRICV
The Lord of the Rings: The Rings of Power S01E05 [Prime Video 4K to 1080p HEVC E-OPUS] HR-DR TV/HD 2022-09-24 10:14:25 1.6 GB 110 90 HakataRamen



By using this site you agree to and accept our user agreement. If you havent read the user agreement please do so here